createdAt,value
2023-02-11T00:01:31.825Z,103310.94
2023-02-11T00:04:00.228Z,103317.91
2023-02-11T00:06:30.000Z,103309.06
2023-02-11T00:08:57.438Z,103304.59
2023-02-11T00:11:30.306Z,103296.63
2023-02-11T00:14:00.150Z,103286.97
2023-02-11T00:16:28.669Z,103289.44
2023-02-11T00:18:55.971Z,103286.75
2023-02-11T00:21:27.347Z,103290.06
2023-02-11T00:23:57.090Z,103284.75
2023-02-11T00:26:32.437Z,103281.22
2023-02-11T00:29:01.936Z,103274.22
2023-02-11T00:31:29.441Z,103268.06
2023-02-11T00:33:57.001Z,103270.63
2023-02-11T00:36:27.830Z,103271.34
2023-02-11T00:38:57.145Z,103270.41
2023-02-11T00:41:24.678Z,103268.00
2023-02-11T00:43:52.658Z,103264.56
2023-02-11T00:46:20.721Z,103264.72
2023-02-11T00:48:48.728Z,103263.19
2023-02-11T00:51:15.922Z,103264.22
2023-02-11T00:53:43.505Z,103254.75
2023-02-11T00:56:10.560Z,103262.78
2023-02-11T00:58:37.886Z,103258.59
2023-02-11T01:01:05.510Z,103264.09
2023-02-11T01:03:33.162Z,103268.59
2023-02-11T01:06:00.479Z,103273.00
2023-02-11T01:08:28.034Z,103278.22
2023-02-11T01:11:06.234Z,103282.66
2023-02-11T01:13:37.140Z,103287.16
2023-02-11T01:16:07.713Z,103282.84
2023-02-11T01:18:34.948Z,103275.94
2023-02-11T01:21:01.994Z,103281.25
2023-02-11T01:23:29.223Z,103277.81
2023-02-11T01:25:56.848Z,103282.16
2023-02-11T01:28:27.344Z,103278.72
2023-02-11T01:30:55.755Z,103281.53
2023-02-11T01:33:23.942Z,103272.91
2023-02-11T01:35:51.439Z,103279.94
2023-02-11T01:38:26.380Z,103284.28
2023-02-11T01:41:00.916Z,103291.25
2023-02-11T01:43:33.208Z,103286.84
2023-02-11T01:46:28.487Z,103286.84
2023-02-11T01:49:15.025Z,103280.69
2023-02-11T01:52:28.758Z,103274.63
2023-02-11T01:55:29.336Z,103276.38
2023-02-11T01:58:02.484Z,103262.38
2023-02-11T02:00:39.025Z,103269.41
2023-02-11T02:03:17.169Z,103262.44
2023-02-11T02:06:02.643Z,103258.09
2023-02-11T02:08:51.166Z,103254.59
2023-02-11T02:11:18.209Z,103248.47
2023-02-11T02:13:45.861Z,103250.94
2023-02-11T02:16:19.385Z,103248.19
2023-02-11T02:19:23.470Z,103250.94
2023-02-11T02:22:45.541Z,103251.81
2023-02-11T02:25:34.551Z,103250.81
2023-02-11T02:28:28.146Z,103257.78
2023-02-11T02:31:43.041Z,103255.16
2023-02-11T02:34:27.371Z,103249.03
2023-02-11T02:37:09.697Z,103248.13
2023-02-11T02:39:37.449Z,103242.81
2023-02-11T02:42:06.028Z,103241.16
2023-02-11T02:44:34.436Z,103247.16
2023-02-11T02:47:01.500Z,103248.03
2023-02-11T02:49:28.477Z,103249.75
2023-02-11T02:52:30.737Z,103240.19
2023-02-11T02:55:38.497Z,103245.50
2023-02-11T02:58:32.978Z,103241.16
2023-02-11T03:01:25.620Z,103234.22
2023-02-11T03:04:22.641Z,103228.06
2023-02-11T03:07:00.780Z,103231.50
2023-02-11T03:10:16.571Z,103230.78
2023-02-11T03:12:45.787Z,103229.88
2023-02-11T03:15:13.928Z,103236.81
2023-02-11T03:17:47.664Z,103226.28
2023-02-11T03:20:20.266Z,103229.78
2023-02-11T03:22:52.982Z,103231.59
2023-02-11T03:25:23.389Z,103224.63
2023-02-11T03:27:58.382Z,103230.78
2023-02-11T03:31:20.497Z,103230.88
2023-02-11T03:34:28.102Z,103221.28
2023-02-11T03:37:02.613Z,103232.59
2023-02-11T03:39:40.756Z,103227.56
2023-02-11T03:42:11.169Z,103235.50
2023-02-11T03:44:45.107Z,103234.69
2023-02-11T03:47:14.746Z,103235.50
2023-02-11T03:49:43.717Z,103232.06
2023-02-11T03:52:13.928Z,103231.25
2023-02-11T03:54:43.672Z,103238.19
2023-02-11T03:57:11.067Z,103238.31
2023-02-11T04:00:05.377Z,103226.81
2023-02-11T04:02:35.585Z,103233.97
2023-02-11T04:05:02.750Z,103226.94
2023-02-11T04:07:30.203Z,103227.84
2023-02-11T04:09:57.436Z,103223.50
2023-02-11T04:12:24.755Z,103240.19
2023-02-11T04:14:52.148Z,103233.22
2023-02-11T04:17:19.570Z,103223.72
2023-02-11T04:19:46.633Z,103215.03
2023-02-11T04:22:14.086Z,103220.28
2023-02-11T04:24:41.444Z,103212.41
2023-02-11T04:27:08.819Z,103209.78
2023-02-11T04:29:36.154Z,103203.66
2023-02-11T04:32:03.586Z,103212.34
2023-02-11T04:34:31.014Z,103204.47
2023-02-11T04:36:58.262Z,103198.34
2023-02-11T04:39:25.540Z,103204.41
2023-02-11T04:41:52.623Z,103200.06
2023-02-11T04:44:19.748Z,103204.41
2023-02-11T04:46:47.448Z,103208.81
2023-02-11T04:49:16.557Z,103208.75
2023-02-11T04:51:47.577Z,103215.78
2023-02-11T04:54:16.133Z,103212.34
2023-02-11T04:56:43.327Z,103219.44
2023-02-11T04:59:11.508Z,103211.59
2023-02-11T05:01:39.163Z,103211.69
2023-02-11T05:04:06.561Z,103213.41
2023-02-11T05:06:33.670Z,103215.13
2023-02-11T05:09:00.850Z,103219.44
2023-02-11T05:11:27.869Z,103216.81
2023-02-11T05:13:54.936Z,103216.94
2023-02-11T05:16:22.390Z,103215.13
2023-02-11T05:18:52.412Z,103224.88
2023-02-11T05:21:20.079Z,103218.72
2023-02-11T05:23:47.534Z,103210.81
2023-02-11T05:26:15.296Z,103208.06
2023-02-11T05:28:43.574Z,103216.75
2023-02-11T05:31:12.360Z,103211.44
2023-02-11T05:33:39.441Z,103205.56
2023-02-11T05:36:10.888Z,103195.88
2023-02-11T05:38:39.166Z,103196.69
2023-02-11T05:41:06.869Z,103197.59
2023-02-11T05:43:37.207Z,103207.09
2023-02-11T05:46:05.663Z,103205.44
2023-02-11T05:48:33.745Z,103198.50
2023-02-11T05:51:00.898Z,103195.88
2023-02-11T05:53:28.101Z,103194.09
2023-02-11T05:55:55.241Z,103195.16
2023-02-11T05:58:22.422Z,103200.41
2023-02-11T06:00:49.538Z,103198.59
2023-02-11T06:03:16.714Z,103205.56
2023-02-11T06:05:45.729Z,103198.50
2023-02-11T06:08:13.145Z,103207.28
2023-02-11T06:10:43.106Z,103207.28
2023-02-11T06:13:10.166Z,103207.19
2023-02-11T06:15:37.367Z,103213.25
2023-02-11T06:18:05.193Z,103209.06
2023-02-11T06:20:32.697Z,103210.81
2023-02-11T06:23:00.121Z,103208.25
2023-02-11T06:25:27.158Z,103199.50
2023-02-11T06:27:54.323Z,103202.19
2023-02-11T06:30:21.518Z,103206.53
2023-02-11T06:32:48.768Z,103204.75
2023-02-11T06:35:16.153Z,103213.56
2023-02-11T06:37:43.877Z,103223.16
2023-02-11T06:40:12.163Z,103212.88
2023-02-11T06:42:39.990Z,103212.09
2023-02-11T06:45:12.991Z,103213.88
2023-02-11T06:47:41.275Z,103205.91
2023-02-11T06:50:12.046Z,103221.63
2023-02-11T06:52:39.350Z,103212.09
2023-02-11T06:55:06.828Z,103225.19
2023-02-11T06:57:34.129Z,103229.50
2023-02-11T07:00:01.542Z,103227.94
2023-02-11T07:02:28.756Z,103237.69
2023-02-11T07:04:56.101Z,103236.94
2023-02-11T07:07:23.458Z,103239.66
2023-02-11T07:09:50.652Z,103243.16
2023-02-11T07:12:17.876Z,103242.34
2023-02-11T07:14:45.142Z,103248.56
2023-02-11T07:17:15.118Z,103251.25
2023-02-11T07:19:42.715Z,103249.53
2023-02-11T07:22:09.950Z,103247.91
2023-02-11T07:24:36.985Z,103254.19
2023-02-11T07:27:04.692Z,103244.53
2023-02-11T07:29:32.089Z,103256.06
2023-02-11T07:31:59.516Z,103247.47
2023-02-11T07:34:27.007Z,103255.41
2023-02-11T07:36:54.231Z,103258.09
2023-02-11T07:39:22.647Z,103260.97
2023-02-11T07:41:49.756Z,103260.22
2023-02-11T07:44:17.070Z,103265.59
2023-02-11T07:46:45.307Z,103256.09
2023-02-11T07:49:13.072Z,103261.53
2023-02-11T07:51:40.339Z,103259.06
2023-02-11T07:54:07.765Z,103261.75
2023-02-11T07:56:35.009Z,103267.09
2023-02-11T07:59:03.860Z,103272.22
2023-02-11T08:01:32.013Z,103272.09
2023-02-11T08:04:01.236Z,103272.47
2023-02-11T08:06:33.004Z,103271.66
2023-02-11T08:09:07.959Z,103276.44
2023-02-11T08:11:35.824Z,103273.75
2023-02-11T08:14:03.235Z,103278.31
2023-02-11T08:16:35.744Z,103281.03
2023-02-11T08:19:11.618Z,103284.56
2023-02-11T08:21:39.762Z,103288.91
2023-02-11T08:24:07.987Z,103288.09
2023-02-11T08:26:36.118Z,103293.41
2023-02-11T08:29:08.680Z,103292.50
2023-02-11T08:31:40.539Z,103291.75
2023-02-11T08:34:08.508Z,103292.78
2023-02-11T08:36:39.428Z,103293.91
2023-02-11T08:39:19.267Z,103306.50
2023-02-11T08:41:56.646Z,103299.69
2023-02-11T08:44:25.299Z,103306.88
2023-02-11T08:46:53.936Z,103307.03
2023-02-11T08:49:22.200Z,103315.13
2023-02-11T08:51:50.068Z,103305.69
2023-02-11T08:54:17.200Z,103310.25
2023-02-11T08:56:44.677Z,103305.22
2023-02-11T08:59:15.395Z,103301.75
2023-02-11T09:01:44.419Z,103303.03
2023-02-11T09:04:11.698Z,103307.44
2023-02-11T09:06:38.957Z,103315.50
2023-02-11T09:09:06.295Z,103312.03
2023-02-11T09:11:35.902Z,103320.94
2023-02-11T09:14:04.447Z,103320.28
2023-02-11T09:16:35.804Z,103301.97
2023-02-11T09:19:05.510Z,103310.97
2023-02-11T09:21:32.681Z,103308.34
2023-02-11T09:23:59.858Z,103319.81
2023-02-11T09:26:32.439Z,103315.59
2023-02-11T09:29:01.353Z,103327.97
2023-02-11T09:31:32.111Z,103323.53
2023-02-11T09:34:04.423Z,103325.50
2023-02-11T09:36:37.549Z,103322.16
2023-02-11T09:39:09.555Z,103332.91
2023-02-11T09:42:03.564Z,103331.22
2023-02-11T09:44:35.161Z,103343.47
2023-02-11T09:47:17.701Z,103332.28
2023-02-11T09:49:53.723Z,103345.56
2023-02-11T09:52:58.855Z,103349.19
2023-02-11T09:55:42.750Z,103353.03
2023-02-11T09:58:32.076Z,103351.53
2023-02-11T10:01:33.252Z,103349.19
2023-02-11T10:04:12.325Z,103355.59
2023-02-11T10:06:47.106Z,103361.97
2023-02-11T10:09:31.698Z,103362.16
2023-02-11T10:13:01.247Z,103361.53
2023-02-11T10:15:50.351Z,103361.69
2023-02-11T10:18:44.442Z,103364.63
2023-02-11T10:21:59.033Z,103368.38
2023-02-11T10:24:29.186Z,103376.25
2023-02-11T10:26:56.217Z,103379.88
2023-02-11T10:30:02.975Z,103384.41
2023-02-11T10:32:51.196Z,103391.59
2023-02-11T10:35:22.405Z,103388.19
2023-02-11T10:37:49.820Z,103381.06
2023-02-11T10:44:33.848Z,103394.16
2023-02-11T10:47:33.266Z,103387.16
2023-02-11T10:50:03.689Z,103383.56
2023-02-11T10:52:31.369Z,103385.50
2023-02-11T10:55:14.901Z,103391.03
2023-02-11T10:58:00.957Z,103391.97
2023-02-11T11:00:38.945Z,103396.47
2023-02-11T11:03:24.373Z,103395.97
2023-02-11T11:05:59.745Z,103394.50
2023-02-11T11:08:50.836Z,103400.72
2023-02-11T11:11:21.853Z,103404.34
2023-02-11T11:14:00.076Z,103401.72
2023-02-11T11:16:32.462Z,103397.28
2023-02-11T11:19:08.928Z,103400.88
2023-02-11T11:21:54.316Z,103400.94
2023-02-11T11:24:45.133Z,103408.16
2023-02-11T11:27:21.932Z,103398.75
2023-02-11T11:29:55.872Z,103408.78
2023-02-11T11:32:32.396Z,103404.63
2023-02-11T11:35:20.486Z,103404.88
2023-02-11T11:38:02.043Z,103410.53
2023-02-11T11:40:32.664Z,103413.53
2023-02-11T11:43:23.127Z,103424.25
2023-02-11T11:46:00.221Z,103420.53
2023-02-11T11:48:43.910Z,103418.59
2023-02-11T11:51:12.753Z,103416.75
2023-02-11T11:53:48.157Z,103417.75
2023-02-11T11:56:41.287Z,103412.91
2023-02-11T11:59:16.465Z,103407.84
2023-02-11T12:02:20.324Z,103409.84
2023-02-11T12:04:53.246Z,103410.88
2023-02-11T12:07:50.824Z,103409.91
2023-02-11T12:10:30.814Z,103408.75
2023-02-11T12:27:37.792Z,103387.28
2023-02-11T12:30:49.579Z,103377.47
2023-02-11T12:33:37.338Z,103384.06
2023-02-11T12:36:25.304Z,103377.78
2023-02-11T12:39:11.236Z,103380.25
2023-02-11T12:45:41.279Z,103367.66
2023-02-11T12:48:23.145Z,103372.25
2023-02-11T12:51:12.934Z,103369.91
2023-02-11T12:54:12.850Z,103374.53
2023-02-11T12:56:50.319Z,103373.88
2023-02-11T12:59:50.559Z,103367.41
2023-02-11T13:02:47.598Z,103369.56
2023-02-11T13:05:38.634Z,103366.47
2023-02-11T13:08:44.484Z,103358.22
2023-02-11T13:11:40.313Z,103363.88
2023-02-11T13:14:39.152Z,103364.03
2023-02-11T13:17:23.456Z,103364.94
2023-02-11T13:20:34.945Z,103366.31
2023-02-11T13:23:39.973Z,103370.41
2023-02-11T13:26:30.841Z,103366.34
2023-02-11T13:29:20.482Z,103351.84
2023-02-11T13:32:07.417Z,103355.41
2023-02-11T13:34:43.425Z,103358.00
2023-02-11T13:37:38.743Z,103358.50
2023-02-11T13:40:23.070Z,103357.56
2023-02-11T13:42:57.888Z,103357.16
2023-02-11T13:45:45.607Z,103350.78
2023-02-11T13:48:24.912Z,103354.34
2023-02-11T13:51:10.831Z,103345.66
2023-02-11T13:53:57.650Z,103358.19
2023-02-11T13:56:38.140Z,103351.44
2023-02-11T13:59:33.492Z,103351.75
2023-02-11T14:02:19.548Z,103351.84
2023-02-11T14:05:23.277Z,103348.38
2023-02-11T14:08:30.787Z,103357.25
2023-02-11T14:11:03.729Z,103352.97
2023-02-11T14:13:32.664Z,103358.25
2023-02-11T14:16:20.325Z,103358.19
2023-02-11T14:18:55.329Z,103362.47
2023-02-11T14:21:31.085Z,103363.25
2023-02-11T14:24:10.935Z,103351.66
2023-02-11T14:27:01.039Z,103361.22
2023-02-11T14:29:55.028Z,103358.19
2023-02-11T14:33:14.060Z,103362.50
2023-02-11T14:36:31.258Z,103363.34
2023-02-11T14:39:26.701Z,103361.53
2023-02-11T14:41:54.761Z,103360.53
2023-02-11T14:44:27.131Z,103356.00
2023-02-11T14:46:55.633Z,103363.06
2023-02-11T14:49:36.216Z,103361.94
2023-02-11T14:52:26.745Z,103365.19
2023-02-11T14:55:37.537Z,103366.06
2023-02-11T14:58:23.556Z,103366.00
2023-02-11T15:01:22.625Z,103370.16
2023-02-11T15:03:50.242Z,103368.13
2023-02-11T15:06:28.943Z,103365.22
2023-02-11T15:09:13.133Z,103376.56
2023-02-11T15:11:43.382Z,103371.22
2023-02-11T15:14:33.189Z,103383.22
2023-02-11T15:17:06.474Z,103381.81
2023-02-11T15:19:41.244Z,103383.34
2023-02-11T15:22:28.155Z,103377.84
2023-02-11T15:25:07.070Z,103376.88
2023-02-11T15:27:53.242Z,103378.47
2023-02-11T15:30:23.203Z,103381.00
2023-02-11T15:33:03.309Z,103384.34
2023-02-11T15:35:38.675Z,103388.56
2023-02-11T15:38:06.754Z,103392.69
2023-02-11T15:40:36.871Z,103401.38
2023-02-11T15:43:10.581Z,103393.53
2023-02-11T15:45:52.689Z,103390.69
2023-02-11T15:48:27.008Z,103397.69
2023-02-11T15:51:02.592Z,103391.53
2023-02-11T15:53:43.146Z,103401.13
2023-02-11T15:56:49.141Z,103400.16
2023-02-11T15:59:33.235Z,103403.44
2023-02-11T16:02:31.474Z,103392.72
2023-02-11T16:05:06.745Z,103386.63
2023-02-11T16:07:43.731Z,103388.34
2023-02-11T16:10:23.507Z,103389.94
2023-02-11T16:13:13.752Z,103394.16
2023-02-11T16:15:58.156Z,103391.38
2023-02-11T16:18:37.832Z,103394.78
2023-02-11T16:21:15.852Z,103387.53
2023-02-11T16:23:49.467Z,103391.84
2023-02-11T16:26:41.017Z,103391.72
2023-02-11T16:29:22.050Z,103390.63
2023-02-11T16:31:50.353Z,103401.94
2023-02-11T16:34:25.982Z,103399.94
2023-02-11T16:36:53.452Z,103409.50
2023-02-11T16:39:22.531Z,103401.59
2023-02-11T16:41:51.668Z,103406.88
2023-02-11T16:44:18.896Z,103410.28
2023-02-11T16:46:46.628Z,103411.09
2023-02-11T16:49:41.685Z,103406.59
2023-02-11T16:52:15.393Z,103407.38
2023-02-11T16:54:42.533Z,103408.84
2023-02-11T16:57:17.258Z,103409.72
2023-02-11T16:59:44.942Z,103408.00
2023-02-11T17:02:31.501Z,103408.84
2023-02-11T17:05:06.315Z,103420.13
2023-02-11T17:07:33.715Z,103416.50
2023-02-11T17:10:01.035Z,103419.84
2023-02-11T17:12:28.132Z,103425.06
2023-02-11T17:14:55.364Z,103419.81
2023-02-11T17:17:23.866Z,103430.25
2023-02-11T17:19:51.367Z,103430.09
2023-02-11T17:22:18.734Z,103434.47
2023-02-11T17:24:46.030Z,103431.78
2023-02-11T17:27:13.782Z,103429.28
2023-02-11T17:29:41.212Z,103432.75
2023-02-11T17:32:08.531Z,103438.00
2023-02-11T17:34:35.627Z,103444.03
2023-02-11T17:37:08.924Z,103449.28
2023-02-11T17:39:37.740Z,103456.28
2023-02-11T17:42:06.219Z,103457.13
2023-02-11T17:44:34.440Z,103457.06
2023-02-11T17:47:01.526Z,103463.16
2023-02-11T17:49:28.837Z,103473.75
2023-02-11T17:51:56.383Z,103471.84
2023-02-11T17:54:24.775Z,103478.78
2023-02-11T17:56:55.137Z,103480.50
2023-02-11T17:59:25.295Z,103481.34
2023-02-11T18:01:52.550Z,103483.06
2023-02-11T18:04:20.411Z,103483.91
2023-02-11T18:06:48.063Z,103487.50
2023-02-11T18:09:15.199Z,103492.69
2023-02-11T18:11:42.744Z,103491.81
2023-02-11T18:14:11.650Z,103484.66
2023-02-11T18:16:42.946Z,103485.56
2023-02-11T18:19:16.580Z,103491.63
2023-02-11T18:21:43.673Z,103494.25
2023-02-11T18:24:10.813Z,103496.00
2023-02-11T18:26:38.194Z,103493.38
2023-02-11T18:29:07.080Z,103492.47
2023-02-11T18:31:37.963Z,103499.53
2023-02-11T18:34:08.041Z,103499.41
2023-02-11T18:36:35.930Z,103503.75
2023-02-11T18:39:03.872Z,103494.91
2023-02-11T18:41:31.148Z,103502.75
2023-02-11T18:43:58.878Z,103509.63
2023-02-11T18:46:26.064Z,103512.19
2023-02-11T18:48:56.086Z,103521.03
2023-02-11T18:51:23.693Z,103512.25
2023-02-11T18:53:50.836Z,103508.78
2023-02-11T18:56:22.872Z,103514.00
2023-02-11T18:58:51.435Z,103514.81
2023-02-11T19:01:24.514Z,103511.28
2023-02-11T19:03:52.236Z,103515.38
2023-02-11T19:06:24.958Z,103516.38
2023-02-11T19:08:59.706Z,103514.50
2023-02-11T19:11:47.125Z,103516.31
2023-02-11T19:14:23.082Z,103518.03
2023-02-11T19:16:56.650Z,103515.31
2023-02-11T19:19:29.954Z,103516.31
2023-02-11T19:21:58.921Z,103513.53
2023-02-11T19:24:27.741Z,103515.25
2023-02-11T19:26:59.435Z,103512.69
2023-02-11T19:29:27.601Z,103506.41
2023-02-11T19:31:55.541Z,103523.00
2023-02-11T19:34:22.786Z,103518.59
2023-02-11T19:36:50.971Z,103530.84
2023-02-11T19:39:18.597Z,103535.09
2023-02-11T19:41:45.712Z,103538.56
2023-02-11T19:44:14.129Z,103536.00
2023-02-11T19:46:41.566Z,103542.09
2023-02-11T19:49:11.259Z,103546.44
2023-02-11T19:51:39.468Z,103539.38
2023-02-11T19:54:08.013Z,103540.28
2023-02-11T19:56:35.516Z,103543.75
2023-02-11T19:59:03.868Z,103545.47
2023-02-11T20:01:31.202Z,103548.03
2023-02-11T20:03:58.317Z,103551.56
2023-02-11T20:06:29.753Z,103560.28
2023-02-11T20:09:00.290Z,103559.28
2023-02-11T20:11:30.423Z,103561.13
2023-02-11T20:13:57.945Z,103562.91
2023-02-11T20:16:44.738Z,103562.91
2023-02-11T20:19:18.273Z,103561.91
2023-02-11T20:21:48.260Z,103560.03
2023-02-11T20:24:17.568Z,103566.19
2023-02-11T20:29:56.938Z,103583.63
2023-02-11T20:32:24.239Z,103573.94
2023-02-11T20:34:51.480Z,103573.94
2023-02-11T20:37:18.663Z,103588.88
2023-02-11T20:39:45.689Z,103580.94
2023-02-11T20:42:14.170Z,103589.66
2023-02-11T20:44:41.596Z,103582.66
2023-02-11T20:47:08.736Z,103589.66
2023-02-11T20:49:35.878Z,103591.44
2023-02-11T20:52:03.028Z,103595.88
2023-02-11T20:54:30.337Z,103595.75
2023-02-11T20:56:58.291Z,103597.38
2023-02-11T20:59:26.570Z,103603.69
2023-02-11T21:01:56.512Z,103602.72
2023-02-11T21:04:30.508Z,103603.53
2023-02-11T21:07:01.151Z,103606.97
2023-02-11T21:09:32.080Z,103606.06
2023-02-11T21:12:00.644Z,103610.44
2023-02-11T21:14:28.477Z,103613.00
2023-02-11T21:16:55.819Z,103607.75
2023-02-11T21:19:22.971Z,103617.34
2023-02-11T21:21:50.392Z,103612.94
2023-02-11T21:24:17.702Z,103616.44
2023-02-11T21:26:45.148Z,103624.25
2023-02-11T21:29:12.627Z,103614.59
2023-02-11T21:31:40.236Z,103621.63
2023-02-11T21:34:07.832Z,103617.22
2023-02-11T21:36:35.202Z,103623.25
2023-02-11T21:39:03.865Z,103624.03
2023-02-11T21:41:31.379Z,103628.38
2023-02-11T21:43:59.016Z,103630.88
2023-02-11T21:46:30.813Z,103626.44
2023-02-11T21:48:58.484Z,103624.72
2023-02-11T21:51:26.489Z,103629.06
2023-02-11T21:54:03.758Z,103637.66
2023-02-11T21:56:34.292Z,103635.03
2023-02-11T21:59:04.383Z,103637.47
2023-02-11T22:01:35.236Z,103637.59
2023-02-11T22:04:02.665Z,103636.63
2023-02-11T22:06:33.387Z,103643.69
2023-02-11T22:09:09.432Z,103641.88
2023-02-11T22:11:37.502Z,103641.06
2023-02-11T22:14:04.882Z,103634.84
2023-02-11T22:16:32.320Z,103636.63
2023-02-11T22:19:02.315Z,103630.41
2023-02-11T22:21:29.709Z,103631.31
2023-02-11T22:23:57.042Z,103631.31
2023-02-11T22:26:26.641Z,103627.66
2023-02-11T22:28:54.877Z,103636.38
2023-02-11T22:31:26.146Z,103632.94
2023-02-11T22:33:53.687Z,103632.78
2023-02-11T22:36:28.197Z,103634.50
2023-02-11T22:38:55.946Z,103631.81
2023-02-11T22:41:24.590Z,103630.91
2023-02-11T22:43:51.857Z,103638.78
2023-02-11T22:46:20.176Z,103636.16
2023-02-11T22:48:48.139Z,103640.44
2023-02-11T22:51:24.829Z,103641.09
2023-02-11T22:53:57.252Z,103643.16
2023-02-11T22:56:26.272Z,103637.00
2023-02-11T22:58:56.363Z,103633.47
2023-02-11T23:01:23.970Z,103627.13
2023-02-11T23:03:51.292Z,103634.03
2023-02-11T23:06:18.872Z,103636.00
2023-02-11T23:08:46.478Z,103640.34
2023-02-11T23:11:20.807Z,103645.78
2023-02-11T23:13:50.718Z,103643.97
2023-02-11T23:16:23.709Z,103641.34
2023-02-11T23:18:52.523Z,103646.50
2023-02-11T23:21:26.316Z,103646.59
2023-02-11T23:24:03.816Z,103646.59
2023-02-11T23:26:31.412Z,103642.13
2023-02-11T23:28:59.741Z,103649.94
2023-02-11T23:31:34.193Z,103650.84
2023-02-11T23:34:01.875Z,103648.97
2023-02-11T23:36:30.946Z,103644.56
2023-02-11T23:38:58.394Z,103640.06
2023-02-11T23:41:25.921Z,103640.06
2023-02-11T23:43:56.314Z,103649.66
2023-02-11T23:46:25.543Z,103651.34
2023-02-11T23:48:53.054Z,103660.16
2023-02-11T23:51:21.627Z,103644.28
2023-02-11T23:53:49.716Z,103645.13
2023-02-11T23:56:24.438Z,103646.03
2023-02-11T23:58:55.185Z,103646.03
